FW2982 Weather Reports


Display with metric or nautical units.
time (UTC)temp
F
wind
direction
speed
MPH
gust
MPH
rain 1hr
in
rain 24hr
in
rain mn
in
humidity
%
barometer
mb
20200707105605 70 99 0.0 2.0 0.00 0.77 0.58 96 1017.2
20200707105104 69 99 0.0 1.0 0.00 0.77 0.58 96 1017.1
20200707104605 69 99 0.0 1.0 0.00 0.77 0.58 96 1017.0
20200707104103 69 99 0.0 1.0 0.00 0.77 0.58 96 1017.0
20200707103603 69 99 0.0 1.0 0.00 0.77 0.58 96 1017.0
20200707103103 69 99 0.0 0.0 0.00 0.77 0.58 96 1017.0
20200707102604 69 99 0.0 0.0 0.00 0.77 0.58 96 1016.9
20200707102102 69 99 0.0 0.0 0.00 0.77 0.58 96 1016.9
20200707101602 69 99 0.0 0.0 0.00 0.77 0.58 96 1016.9
20200707101103 69 99 0.0 0.0 0.00 0.77 0.58 96 1016.8
20200707100602 69 99 0.0 0.0 0.00 0.77 0.58 96 1016.8
20200707100103 69 99 0.0 0.0 0.00 0.77 0.58 96 1016.8
20200707095602 69 99 0.0 0.0 0.00 0.77 0.58 96 1016.8
20200707095102 69 99 0.0 1.0 0.00 0.77 0.58 96 1016.8
20200707094602 69 99 0.0 2.0 0.00 0.77 0.58 95 1016.7
20200707094105 70 99 1.0 2.0 0.00 0.77 0.58 96 1016.6
20200707093602 70 99 0.0 2.0 0.00 0.77 0.58 96 1016.6
20200707093102 70 99 0.0 2.0 0.00 0.77 0.58 96 1016.6
20200707092603 70 99 1.0 2.0 0.00 0.77 0.58 96 1016.4
20200707092103 70 99 0.0 1.0 0.00 0.77 0.58 96 1016.4
20200707091102 70 99 0.0 0.0 0.00 0.77 0.58 96 1016.1
20200707090601 69 99 0.0 1.0 0.01 0.77 0.58 96 1016.1
20200707090102 69 99 0.0 1.0 0.01 0.77 0.58 96 1016.1
20200707085559 69 99 0.0 0.0 0.01 0.77 0.58 95 1016.0
20200707085102 69 99 0.0 0.0 0.01 0.77 0.58 95 1015.9
20200707084600 69 99 0.0 0.0 0.01 0.77 0.58 95 1016.0
20200707084100 69 99 0.0 0.0 0.01 0.77 0.58 95 1015.9
20200707083600 69 99 0.0 1.0 0.02 0.77 0.58 95 1015.8
20200707083059 69 99 0.0 1.0 0.02 0.77 0.58 95 1015.8
20200707082600 69 99 0.0 1.0 0.03 0.77 0.58 95 1015.8
20200707082059 69 99 0.0 1.0 0.04 0.77 0.58 95 1015.9
20200707081559 69 99 0.0 2.0 0.06 0.77 0.58 95 1015.8
20200707081100 69 99 0.0 4.0 0.06 0.76 0.57 95 1015.7
20200707080559 69 99 2.0 3.0 0.08 0.76 0.57 95 1015.8
20200707080059 69 179 1.0 3.0 0.11 0.76 0.57 95 1015.9
20200707075559 69 149 1.0 2.0 0.15 0.76 0.57 95 1016.1
20200707075059 70 155 0.0 2.0 0.16 0.76 0.57 95 1016.2
20200707074600 70 204 1.0 2.0 0.20 0.76 0.57 95 1016.4
20200707074058 70 212 0.0 2.0 0.24 0.76 0.57 95 1016.4
20200707073559 70 200 1.0 4.0 0.27 0.75 0.56 95 1016.7
20200707073058 70 200 2.0 4.0 0.32 0.75 0.56 95 1016.6
20200707072558 70 161 1.0 3.0 0.35 0.74 0.55 95 1016.7
20200707072057 70 190 1.0 3.0 0.36 0.72 0.53 95 1016.7
20200707071558 70 223 1.0 3.0 0.38 0.71 0.52 95 1017.0
20200707071058 70 295 2.0 5.0 0.38 0.69 0.50 95 1016.9
20200707070559 70 217 2.0 4.0 0.38 0.67 0.48 95 1016.9
20200707070059 70 221 2.0 4.0 0.37 0.65 0.46 95 1016.6
20200707065558 70 213 2.0 3.0 0.33 0.61 0.42 95 1016.6
20200707065057 70 220 2.0 4.0 0.31 0.59 0.40 95 1016.8
20200707064558 71 209 3.0 4.0 0.28 0.56 0.37 95 1016.9
20200707064059 71 195 1.0 4.0 0.23 0.51 0.32 95 1017.2
20200707063557 71 124 1.0 4.0 0.19 0.47 0.28 95 1017.4
20200707063057 71 144 1.0 4.0 0.14 0.42 0.23 95 1017.5
20200707062556 71 147 2.0 3.0 0.10 0.38 0.19 94 1017.8
20200707062057 71 313 1.0 3.0 0.07 0.35 0.16 95 1017.9
20200707061557 71 316 1.0 3.0 0.04 0.32 0.13 95 1017.8
20200707061057 71 66 1.0 3.0 0.02 0.30 0.11 95 1017.6
20200707060556 71 68 0.0 4.0 0.00 0.28 0.09 95 1017.6
20200707060055 71 68 2.0 3.0 0.00 0.28 0.09 95 1017.7
20200707055554 71 55 0.0 0.0 0.00 0.28 0.09 95 1017.7
20200707055055 71 55 0.0 0.0 0.00 0.28 0.09 95 1017.6
20200707054555 71 55 0.0 1.0 0.00 0.28 0.09 95 1017.6
20200707054054 71 55 0.0 2.0 0.00 0.28 0.09 94 1017.5
20200707053555 71 55 0.0 2.0 0.00 0.28 0.09 94 1017.5
20200707053055 71 86 0.0 2.0 0.00 0.28 0.09 94 1017.4
20200707052555 71 68 1.0 3.0 0.00 0.28 0.09 94 1017.3
20200707052054 71 68 0.0 3.0 0.00 0.28 0.09 94 1017.4
20200707051554 71 52 2.0 3.0 0.01 0.28 0.09 94 1017.4
20200707051054 71 52 1.0 5.0 0.02 0.28 0.09 94 1017.6
20200707050554 71 66 1.0 5.0 0.05 0.28 0.09 94 1017.7
20200707050054 71 197 1.0 7.0 0.08 0.28 0.09 94 1017.5
20200707045552 71 141 2.0 7.0 0.14 0.28 0.09 93 1017.6
20200707045053 71 44 1.0 4.0 0.17 0.28 0.09 93 1017.6
20200707044553 71 18 1.0 4.0 0.22 0.28 0.09 93 1017.6
20200707044053 71 0 1.0 4.0 0.26 0.28 0.09 93 1017.6
20200707043553 71 47 1.0 4.0 0.28 0.28 0.09 93 1017.6
20200707043053 71 54 1.0 4.0 0.28 0.28 0.09 93 1017.5
20200707042553 71 189 1.0 5.0 0.28 0.28 0.09 93 1017.4
20200707042053 71 71 1.0 6.0 0.28 0.28 0.09 92 1017.5
20200707041552 71 120 2.0 6.0 0.27 0.27 0.08 92 1017.5
20200707041053 71 59 3.0 7.0 0.25 0.25 0.06 92 1017.6
20200707040552 71 62 2.0 7.0 0.22 0.22 0.03 92 1017.9
20200707040053 71 44 3.0 5.0 0.19 0.19 0.00 91 1018.1
20200707035555 72 54 2.0 9.0 0.14 0.14 0.14 90 1018.3
20200707035052 72 75 2.0 9.0 0.10 0.10 0.10 89 1018.2
20200707034552 73 93 2.0 5.0 0.06 0.06 0.06 89 1017.7
20200707034052 73 121 2.0 5.0 0.02 0.02 0.02 88 1018.0
20200707033552 73 319 2.0 6.0 0.00 0.00 0.00 87 1018.4
20200707033051 73 68 3.0 6.0 0.00 0.00 0.00 87 1017.6
20200707032552 73 69 2.0 7.0 0.00 0.00 0.00 87 1017.2
20200707032052 73 179 2.0 7.0 0.00 0.00 0.00 87 1017.5
20200707031552 73 179 2.0 7.0 0.00 0.00 0.00 87 1017.3
20200707031052 74 56 3.0 5.0 0.00 0.00 0.00 87 1017.5
20200707030551 73 31 2.0 9.0 0.00 0.00 0.00 87 1017.5
20200707030052 73 68 4.0 11.0 0.00 0.00 0.00 87 1017.4
20200707025551 74 69 5.0 11.0 0.00 0.00 0.00 86 1017.3
20200707025051 74 90 3.0 9.0 0.00 0.00 0.00 86 1017.2
20200707024555 74 90 3.0 9.0 0.00 0.00 0.00 86 1017.0
20200707024051 74 44 2.0 6.0 0.00 0.00 0.00 86 1017.0
20200707023550 74 37 3.0 10.0 0.00 0.00 0.00 86 1017.0
20200707023050 74 13 5.0 10.0 0.00 0.00 0.00 86 1016.7
20200707022551 75 13 2.0 5.0 0.00 0.00 0.00 87 1016.8
20200707022053 75 58 2.0 5.0 0.00 0.00 0.00 86 1016.8
20200707021551 75 49 2.0 3.0 0.00 0.00 0.00 86 1016.4
20200707021051 75 49 1.0 3.0 0.00 0.00 0.00 86 1016.4
20200707020552 75 49 2.0 4.0 0.00 0.00 0.00 86 1016.3
20200707020051 75 49 2.0 4.0 0.00 0.00 0.00 85 1016.2
20200707015552 75 42 2.0 3.0 0.00 0.00 0.00 85 1016.1
20200707015052 75 42 1.0 5.0 0.00 0.00 0.00 85 1015.9
20200707014552 75 52 3.0 4.0 0.00 0.00 0.00 84 1015.8
20200707014051 76 62 2.0 4.0 0.00 0.00 0.00 84 1015.7
20200707013556 76 63 1.0 1.0 0.00 0.00 0.00 84 1015.4
20200707013052 76 63 0.0 2.0 0.00 0.00 0.00 83 1015.2
20200707012551 76 63 0.0 2.0 0.00 0.00 0.00 82 1015.2
20200707012050 76 63 2.0 2.0 0.00 0.00 0.00 82 1015.2
20200707011550 76 63 0.0 1.0 0.00 0.00 0.00 81 1015.2
20200707011050 76 63 0.0 0.0 0.00 0.00 0.00 81 1015.3
20200707010550 77 63 0.0 0.0 0.00 0.00 0.00 81 1015.1
20200707010050 77 63 0.0 0.0 0.00 0.00 0.00 80 1014.9
20200707005549 77 63 0.0 1.0 0.00 0.00 0.00 79 1014.8
20200707005049 77 63 0.0 1.0 0.00 0.00 0.00 79 1014.7
20200707004550 78 63 0.0 2.0 0.00 0.00 0.00 78 1014.8
20200707004050 78 63 1.0 2.0 0.00 0.00 0.00 77 1014.9
20200707003549 78 63 1.0 1.0 0.00 0.00 0.00 76 1014.7
20200707003049 78 63 0.0 2.0 0.00 0.00 0.00 75 1014.7
20200707002548 79 63 1.0 2.0 0.00 0.00 0.00 76 1014.7
20200707002050 78 63 0.0 2.0 0.00 0.00 0.00 75 1014.7
20200707001549 79 63 1.0 2.0 0.00 0.00 0.00 74 1014.5
20200707001049 79 63 1.0 3.0 0.00 0.00 0.00 74 1014.7
20200707000555 79 62 1.0 6.0 0.00 0.00 0.00 74 1014.7
20200707000048 79 94 3.0 6.0 0.00 0.00 0.00 72 1014.8
20200706235548 80 134 2.0 4.0 0.00 0.00 0.00 72 1014.8
20200706235048 80 35 1.0 5.0 0.00 0.00 0.00 72 1014.7
20200706234549 81 138 2.0 7.0 0.00 0.00 0.00 71 1014.7
20200706234048 83 131 2.0 7.0 0.00 0.00 0.00 69 1014.7
20200706233547 84 63 4.0 4.0 0.00 0.00 0.00 72 1014.6
20200706233048 85 61 2.0 2.0 0.00 0.00 0.00 73 1014.3
20200706232548 85 61 0.0 3.0 0.00 0.00 0.00 72 1014.0
20200706232047 85 61 0.0 3.0 0.00 0.00 0.00 71 1013.9
20200706231547 86 61 1.0 2.0 0.00 0.00 0.00 70 1013.9
20200706231047 87 61 0.0 3.0 0.00 0.00 0.00 69 1014.0
20200706230548 87 61 1.0 2.0 0.00 0.00 0.00 67 1014.1
20200706230051 87 206 0.0 4.0 0.00 0.00 0.00 66 1014.0
20200706225548 87 0 2.0 9.0 0.00 0.00 0.00 67 1013.7
20200706225047 87 265 0.0 9.0 0.00 0.00 0.00 66 1013.6
20200706224547 88 330 1.0 6.0 0.00 0.00 0.00 66 1013.7
20200706224047 88 241 1.0 7.0 0.00 0.00 0.00 66 1013.6
20200706223546 88 283 2.0 6.0 0.00 0.00 0.00 66 1013.5
20200706223046 88 217 4.0 6.0 0.00 0.00 0.00 66 1013.3
20200706222547 88 334 3.0 6.0 0.00 0.00 0.00 67 1013.0
20200706222046 89 259 1.0 6.0 0.00 0.00 0.00 69 1013.0
20200706221546 89 240 1.0 5.0 0.00 0.00 0.00 71 1013.1
20200706221047 88 235 1.0 5.0 0.00 0.00 0.00 71 1013.1
20200706220547 88 80 0.0 1.0 0.00 0.01 0.00 72 1013.0
20200706220045 89 80 1.0 1.0 0.00 0.02 0.00 70 1013.0
20200706215546 89 80 0.0 2.0 0.00 0.04 0.00 71 1013.1
20200706215046 89 80 0.0 1.0 0.00 0.06 0.00 71 1013.1
20200706214545 89 79 0.0 2.0 0.00 0.06 0.00 69 1013.3
20200706214046 89 100 0.0 2.0 0.00 0.07 0.00 69 1013.4
20200706213545 90 100 1.0 4.0 0.00 0.08 0.00 66 1013.5
20200706213045 91 107 2.0 4.0 0.00 0.10 0.00 66 1013.6
20200706212546 90 203 1.0 2.0 0.00 0.13 0.00 68 1013.8
20200706212045 89 203 0.0 3.0 0.00 0.16 0.00 69 1013.9
20200706211545 89 216 1.0 3.0 0.00 0.18 0.00 69 1013.8
20200706211044 89 230 0.0 3.0 0.00 0.20 0.00 68 1013.8
20200706210546 89 233 0.0 3.0 0.00 0.20 0.00 67 1013.9
20200706210044 89 80 1.0 3.0 0.00 0.20 0.00 68 1013.9
20200706205545 89 76 1.0 3.0 0.00 0.20 0.00 66 1013.9
20200706205045 90 85 0.0 5.0 0.00 0.20 0.00 66 1013.9
20200706204544 91 85 1.0 5.0 0.00 0.20 0.00 63 1014.0
20200706204044 91 134 2.0 3.0 0.00 0.20 0.00 66 1013.9
20200706203544 92 175 1.0 3.0 0.00 0.20 0.00 66 1014.0
20200706203043 92 235 1.0 3.0 0.00 0.20 0.00 62 1014.1
20200706202543 92 235 2.0 4.0 0.00 0.20 0.00 63 1014.1
20200706202044 92 0 1.0 4.0 0.00 0.20 0.00 65 1014.0
20200706201543 92 350 1.0 4.0 0.00 0.20 0.00 64 1014.0
20200706201043 90 83 1.0 4.0 0.00 0.20 0.00 66 1013.9
20200706200543 90 104 1.0 3.0 0.00 0.20 0.00 64 1014.0
20200706200043 91 106 1.0 3.0 0.00 0.20 0.00 64 1014.1
20200706195543 91 116 0.0 3.0 0.00 0.20 0.00 64 1014.1
20200706195043 91 197 1.0 4.0 0.00 0.20 0.00 64 1014.3
20200706194546 92 210 2.0 4.0 0.00 0.20 0.00 64 1014.2
20200706194043 92 173 2.0 6.0 0.00 0.20 0.00 62 1014.2
20200706193542 93 164 3.0 6.0 0.00 0.20 0.00 59 1014.3
20200706193043 93 281 2.0 6.0 0.00 0.20 0.00 62 1014.3
20200706192542 92 72 1.0 4.0 0.00 0.20 0.00 61 1014.3
20200706192042 93 200 1.0 2.0 0.00 0.20 0.00 64 1014.4
20200706191543 93 200 1.0 2.0 0.00 0.20 0.00 62 1014.5
20200706191041 93 200 0.0 2.0 0.00 0.20 0.00 65 1014.6
20200706190542 92 200 1.0 4.0 0.00 0.20 0.00 64 1014.7
20200706190041 93 106 1.0 4.0 0.00 0.20 0.00 62 1014.7
20200706185542 92 147 2.0 7.0 0.00 0.20 0.00 64 1014.7
20200706185041 93 134 1.0 7.0 0.00 0.20 0.00 63 1014.9
20200706184541 94 255 2.0 6.0 0.00 0.20 0.00 61 1014.9
20200706184041 93 213 1.0 5.0 0.00 0.20 0.00 63 1014.9
20200706183541 92 199 2.0 5.0 0.00 0.20 0.00 64 1014.9
20200706183041 92 175 0.0 2.0 0.00 0.20 0.00 66 1015.1
20200706182542 93 102 1.0 4.0 0.00 0.20 0.00 61 1015.1
20200706182041 93 223 2.0 4.0 0.00 0.20 0.00 61 1015.3
20200706181540 93 221 1.0 4.0 0.00 0.20 0.00 64 1015.4
20200706181041 93 8 1.0 4.0 0.00 0.20 0.00 63 1015.4
20200706180540 93 18 1.0 4.0 0.00 0.20 0.00 63 1015.5
20200706180041 93 195 0.0 3.0 0.00 0.20 0.00 62 1015.6
20200706175540 93 103 0.0 3.0 0.00 0.20 0.00 61 1015.6
20200706175040 93 94 1.0 3.0 0.00 0.20 0.00 62 1015.6
20200706174540 94 86 2.0 3.0 0.00 0.20 0.00 59 1015.6
20200706174040 93 166 1.0 3.0 0.00 0.20 0.00 62 1015.6
20200706173540 93 173 1.0 3.0 0.00 0.20 0.00 62 1015.6
20200706173040 94 189 1.0 3.0 0.00 0.20 0.00 61 1015.7
20200706172538 93 127 0.0 1.0 0.00 0.20 0.00 63 1015.8
20200706172040 93 134 1.0 2.0 0.00 0.20 0.00 63 1015.9
20200706171540 93 134 1.0 2.0 0.00 0.20 0.00 64 1015.9
20200706171039 92 127 1.0 3.0 0.00 0.20 0.00 65 1016.0
20200706170539 92 214 1.0 2.0 0.00 0.20 0.00 62 1016.0
20200706170039 92 192 0.0 3.0 0.00 0.20 0.00 64 1016.1
20200706165539 92 190 1.0 3.0 0.00 0.20 0.00 62 1016.1
20200706165039 92 80 1.0 3.0 0.00 0.20 0.00 64 1016.0
20200706164538 92 80 0.0 3.0 0.00 0.20 0.00 60 1016.0
20200706164038 91 152 2.0 4.0 0.00 0.20 0.00 62 1016.0
20200706163539 91 61 2.0 4.0 0.00 0.20 0.00 62 1016.0
20200706163038 91 125 1.0 4.0 0.00 0.20 0.00 66 1016.1
20200706162539 92 92 1.0 6.0 0.00 0.20 0.00 64 1016.0
20200706162038 91 69 2.0 6.0 0.00 0.20 0.00 63 1016.1
20200706161537 91 82 1.0 3.0 0.00 0.20 0.00 65 1016.2
20200706161037 92 224 1.0 3.0 0.00 0.20 0.00 67 1016.1
20200706160537 91 134 1.0 3.0 0.00 0.20 0.00 67 1016.2
20200706160037 92 357 0.0 2.0 0.00 0.20 0.00 63 1016.2
20200706155537 91 0 0.0 3.0 0.00 0.20 0.00 67 1016.2
20200706155036 90 0 1.0 3.0 0.00 0.20 0.00 66 1016.3
20200706154536 90 0 1.0 3.0 0.00 0.20 0.00 66 1016.2
20200706154036 90 300 1.0 4.0 0.00 0.20 0.00 65 1016.1
20200706153536 91 235 0.0 4.0 0.00 0.20 0.00 68 1016.3
20200706153036 90 241 1.0 2.0 0.00 0.20 0.00 69 1016.3
20200706152536 89 241 1.0 2.0 0.00 0.20 0.00 68 1016.4
20200706152035 89 0 1.0 2.0 0.00 0.20 0.00 69 1016.4
20200706151536 90 350 1.0 2.0 0.00 0.20 0.00 66 1016.6
20200706151035 92 296 0.0 2.0 0.00 0.20 0.00 65 1016.4
20200706150535 92 296 1.0 2.0 0.00 0.20 0.00 65 1016.4
20200706150036 91 231 1.0 3.0 0.00 0.20 0.00 69 1016.4
20200706145535 90 224 0.0 3.0 0.00 0.20 0.00 67 1016.3
20200706145035 89 75 0.0 2.0 0.00 0.20 0.00 71 1016.4
20200706144535 89 75 1.0 2.0 0.00 0.20 0.00 71 1016.4
20200706144035 86 75 1.0 2.0 0.00 0.20 0.00 73 1016.4
20200706143535 87 75 0.0 1.0 0.00 0.20 0.00 74 1016.2
20200706143034 87 89 1.0 1.0 0.00 0.20 0.00 75 1016.3
20200706142534 84 89 0.0 2.0 0.00 0.20 0.00 77 1016.3
20200706142034 85 89 0.0 2.0 0.00 0.20 0.00 76 1016.4
20200706141537 84 89 1.0 3.0 0.00 0.20 0.00 77 1016.4
20200706141038 84 90 1.0 3.0 0.00 0.20 0.00 79 1016.4
20200706140536 83 183 1.0 2.0 0.00 0.20 0.00 80 1016.4
20200706140035 81 124 1.0 3.0 0.00 0.20 0.00 86 1016.3
20200706135537 79 124 1.0 3.0 0.00 0.20 0.00 87 1016.4
20200706135037 79 52 0.0 1.0 0.00 0.20 0.00 92 1016.3
20200706134536 78 52 0.0 1.0 0.00 0.20 0.00 93 1016.6
20200706134034 77 52 0.0 0.0 0.00 0.20 0.00 94 1016.7
20200706133534 76 52 0.0 1.0 0.00 0.20 0.00 96 1016.7
20200706133035 75 52 0.0 1.0 0.00 0.20 0.00 96 1016.7
20200706132534 75 52 0.0 0.0 0.00 0.20 0.00 96 1016.8
20200706132034 75 52 0.0 1.0 0.00 0.20 0.00 96 1016.7
20200706131533 74 52 0.0 1.0 0.00 0.20 0.00 96 1016.7
20200706131035 74 52 0.0 1.0 0.00 0.20 0.00 96 1016.8
20200706130535 75 52 0.0 1.0 0.00 0.20 0.00 96 1016.7
20200706130035 74 52 0.0 0.0 0.00 0.20 0.00 97 1016.7
20200706125535 74 52 0.0 1.0 0.00 0.20 0.00 97 1016.7
20200706125033 74 52 0.0 1.0 0.00 0.20 0.00 97 1016.6
20200706124534 74 52 0.0 1.0 0.00 0.20 0.00 97 1016.6
20200706124033 74 52 0.0 1.0 0.00 0.20 0.00 97 1016.6
20200706123534 74 52 0.0 0.0 0.00 0.20 0.00 97 1016.4
20200706123032 74 52 0.0 0.0 0.00 0.20 0.00 97 1016.2
20200706122534 74 52 0.0 1.0 0.00 0.20 0.00 97 1016.2
20200706122034 74 52 0.0 1.0 0.00 0.20 0.00 97 1016.1
20200706121530 74 52 0.0 0.0 0.00 0.20 0.00 97 1016.1
20200706121031 73 52 0.0 0.0 0.00 0.20 0.00 97 1016.0
20200706120531 73 52 0.0 0.0 0.00 0.20 0.00 97 1015.9
20200706120031 73 52 0.0 0.0 0.00 0.20 0.00 97 1015.9
20200706115531 73 52 0.0 1.0 0.00 0.20 0.00 97 1015.9
20200706115031 73 52 0.0 1.0 0.00 0.20 0.00 97 1015.8
20200706114531 73 52 0.0 0.0 0.00 0.20 0.00 97 1015.7
20200706114032 73 52 0.0 0.0 0.00 0.20 0.00 97 1015.7
20200706113532 73 52 0.0 0.0 0.00 0.20 0.00 97 1015.6
20200706113030 72 52 0.0 0.0 0.00 0.20 0.00 97 1015.6
20200706112531 72 52 0.0 0.0 0.00 0.20 0.00 97 1015.6
20200706112031 72 52 0.0 0.0 0.00 0.20 0.00 97 1015.6
20200706111531 72 52 0.0 0.0 0.00 0.20 0.00 97 1015.5
20200706111030 72 52 0.0 0.0 0.00 0.20 0.00 96 1015.5
20200706110530 72 52 0.0 1.0 0.00 0.20 0.00 97 1015.5
20200706110030 72 52 0.0 1.0 0.00 0.20 0.00 97 1015.6